Time;durP1;ratioP1;P1;durP2;ratioP2;P2;SDS_P1;SDS_P2;PMS_P1;PMS_P2;Temp;Humidity;BMP_temperature;BMP_pressure;BME280_temperature;BME280_humidity;BME280_pressure;Samples;Min_cycle;Max_cycle;Signal;HPM_P1;HPM_P2
2022/10/02 06:00:33;;;;;;;;;0.00;0.00;;;;;;;;6103865;22;46528;-61
2022/10/02 06:03:21;;;;;;;;;0.00;0.00;;;;;;;;5028841;28;45566;-61
2022/10/02 06:05:59;;;;;;;;;0.00;0.00;;;;;;;;5031116;28;45913;-61
2022/10/02 06:08:31;;;;;;;;;0.00;0.00;;;;;;;;5031294;28;45662;-61
2022/10/02 06:10:59;;;;;;;;;0.00;0.00;;;;;;;;5032585;28;46331;-61
2022/10/02 06:13:45;;;;;;;;;0.00;0.00;;;;;;;;5032912;28;45590;-61
2022/10/02 06:16:17;;;;;;;;;0.00;0.00;;;;;;;;5032196;28;45503;-61
2022/10/02 06:18:45;;;;;;;;;0.25;0.00;;;;;;;;5032176;28;47399;-60
2022/10/02 06:21:42;;;;;;;;;0.00;0.00;;;;;;;;5031465;28;45447;-61
2022/10/02 06:24:13;;;;;;;;;0.00;0.00;;;;;;;;4999387;28;45420;-61
2022/10/02 06:26:39;;;;;;;;;1.00;0.00;;;;;;;;5035436;28;45678;-61
2022/10/02 06:29:13;;;;;;;;;0.00;0.00;;;;;;;;5024381;28;46190;-61
2022/10/02 06:31:53;;;;;;;;;0.00;0.00;;;;;;;;5035029;28;45403;-60
2022/10/02 06:34:18;;;;;;;;;0.00;0.00;;;;;;;;5033494;28;45358;-61
2022/10/02 06:36:47;;;;;;;;;0.00;0.00;;;;;;;;5027466;28;45357;-61
2022/10/02 06:39:12;;;;;;;;;2.00;0.00;;;;;;;;5032566;28;46210;-61
2022/10/02 06:41:53;;;;;;;;;0.00;0.00;;;;;;;;5036341;28;45391;-61
2022/10/02 06:44:26;;;;;;;;;0.00;0.00;;;;;;;;5026735;28;45491;-61
2022/10/02 06:46:57;;;;;;;;;0.67;0.00;;;;;;;;5025066;28;45479;-61
2022/10/02 06:49:27;;;;;;;;;0.00;0.00;;;;;;;;5028815;28;45463;-61
2022/10/02 06:52:14;;;;;;;;;0.00;0.00;;;;;;;;5027054;28;45445;-61
2022/10/02 06:54:39;;;;;;;;;0.00;0.00;;;;;;;;5031118;28;45573;-61
2022/10/02 06:57:23;;;;;;;;;0.00;0.00;;;;;;;;5030066;28;45340;-61
2022/10/02 07:00:02;;;;;;;;;0.00;0.00;;;;;;;;5028948;28;46352;-61
2022/10/02 07:02:46;;;;;;;;;0.00;0.00;;;;;;;;5018524;28;45510;-61
2022/10/02 07:05:14;;;;;;;;;1.00;1.00;;;;;;;;5024303;28;45518;-61
2022/10/02 07:07:48;;;;;;;;;1.50;0.00;;;;;;;;5033225;28;45563;-61
2022/10/02 07:10:24;;;;;;;;;0.00;0.00;;;;;;;;5028694;28;46360;-61
2022/10/02 07:12:56;;;;;;;;;1.50;0.00;;;;;;;;5032154;28;45297;-62
2022/10/02 07:15:43;;;;;;;;;0.00;0.00;;;;;;;;5027293;28;45808;-61
2022/10/02 07:18:22;;;;;;;;;0.00;0.00;;;;;;;;5035332;28;45336;-61
2022/10/02 07:20:47;;;;;;;;;0.00;0.00;;;;;;;;5026193;28;45712;-61
2022/10/02 07:23:30;;;;;;;;;0.00;0.00;;;;;;;;5023314;28;45565;-62
2022/10/02 07:26:11;;;;;;;;;1.00;0.00;;;;;;;;5011324;28;45514;-61
2022/10/02 07:28:49;;;;;;;;;0.00;0.00;;;;;;;;5030631;28;45663;-62
2022/10/02 07:31:32;;;;;;;;;0.00;0.00;;;;;;;;5030029;28;45539;-61
2022/10/02 07:34:16;;;;;;;;;0.00;0.00;;;;;;;;5014124;28;45839;-61
2022/10/02 07:36:52;;;;;;;;;0.00;0.00;;;;;;;;5031344;28;45412;-61
2022/10/02 07:39:17;;;;;;;;;1.75;0.00;;;;;;;;5028631;28;45459;-62
2022/10/02 07:42:02;;;;;;;;;0.75;0.00;;;;;;;;5013195;28;46903;-61
2022/10/02 07:44:48;;;;;;;;;0.00;0.00;;;;;;;;5030034;28;45486;-60
2022/10/02 07:47:13;;;;;;;;;0.75;0.00;;;;;;;;5031875;28;45670;-61
2022/10/02 07:49:44;;;;;;;;;0.75;0.75;;;;;;;;5029004;28;45531;-61
2022/10/02 07:52:19;;;;;;;;;0.00;0.00;;;;;;;;5023048;28;45703;-60
2022/10/02 07:54:58;;;;;;;;;0.00;0.00;;;;;;;;5022308;28;45459;-61
2022/10/02 07:57:26;;;;;;;;;1.00;0.00;;;;;;;;5023932;28;45523;-61
2022/10/02 07:59:54;;;;;;;;;1.25;0.25;;;;;;;;5028630;28;45439;-61
2022/10/02 08:02:40;;;;;;;;;0.75;0.00;;;;;;;;5028446;28;46263;-61
2022/10/02 08:05:13;;;;;;;;;0.50;0.50;;;;;;;;5011286;28;45553;-62
2022/10/02 08:07:38;;;;;;;;;0.00;0.00;;;;;;;;5007722;28;45530;-61
2022/10/02 08:10:06;;;;;;;;;0.00;0.00;;;;;;;;5027553;28;45623;-62
2022/10/02 08:12:36;;;;;;;;;1.00;0.25;;;;;;;;5024742;28;45491;-62
2022/10/02 08:15:04;;;;;;;;;1.75;0.00;;;;;;;;5026340;28;45715;-62
2022/10/02 08:17:43;;;;;;;;;1.50;0.50;;;;;;;;5029051;28;45482;-60
2022/10/02 08:20:12;;;;;;;;;1.00;0.00;;;;;;;;5030464;28;46724;-61
2022/10/02 08:22:43;;;;;;;;;2.25;0.75;;;;;;;;5032489;28;45687;-60
2022/10/02 08:25:11;;;;;;;;;3.00;1.00;;;;;;;;5029017;28;45497;-62
2022/10/02 08:27:40;;;;;;;;;0.00;0.00;;;;;;;;5014686;28;45747;-62
2022/10/02 08:30:10;;;;;;;;;2.00;1.00;;;;;;;;5010571;28;45614;-63
2022/10/02 08:32:36;;;;;;;;;1.00;0.50;;;;;;;;5031681;28;46286;-63
2022/10/02 08:35:19;;;;;;;;;1.00;1.00;;;;;;;;5036168;28;45527;-62
2022/10/02 08:38:00;;;;;;;;;2.00;0.00;;;;;;;;5025928;28;45620;-64
2022/10/02 08:40:29;;;;;;;;;1.25;1.25;;;;;;;;5035554;28;45526;-62
2022/10/02 08:42:57;;;;;;;;;1.00;1.00;;;;;;;;5033721;28;46020;-63
2022/10/02 08:45:28;;;;;;;;;0.50;0.50;;;;;;;;5027427;28;45617;-62
2022/10/02 08:48:09;;;;;;;;;0.00;0.00;;;;;;;;5034338;28;45445;-62
2022/10/02 08:50:45;;;;;;;;;1.50;1.00;;;;;;;;5023449;28;46559;-62
2022/10/02 08:53:16;;;;;;;;;1.00;1.00;;;;;;;;5021604;28;46190;-62
2022/10/02 08:55:53;;;;;;;;;1.00;1.00;;;;;;;;5024025;28;45277;-63
2022/10/02 08:58:28;;;;;;;;;2.50;1.50;;;;;;;;5027112;28;45586;-62
2022/10/02 09:01:16;;;;;;;;;3.50;2.00;;;;;;;;5033495;28;45475;-65
2022/10/02 09:03:44;;;;;;;;;2.75;1.00;;;;;;;;5031682;28;46131;-62
2022/10/02 09:06:22;;;;;;;;;2.25;0.50;;;;;;;;5026206;28;45408;-62
2022/10/02 09:08:50;;;;;;;;;1.00;1.00;;;;;;;;5019741;28;45660;-63
2022/10/02 09:11:36;;;;;;;;;2.25;1.00;;;;;;;;5028551;28;45904;-63
2022/10/02 09:14:05;;;;;;;;;0.25;0.25;;;;;;;;5028261;28;46107;-63
2022/10/02 09:16:37;;;;;;;;;1.75;1.75;;;;;;;;5034296;28;45581;-62
2022/10/02 09:19:21;;;;;;;;;0.00;0.00;;;;;;;;5028574;28;45576;-62
2022/10/02 09:21:57;;;;;;;;;1.25;0.00;;;;;;;;5031453;28;45294;-63
2022/10/02 09:24:43;;;;;;;;;0.50;0.50;;;;;;;;5023001;28;45692;-63
2022/10/02 09:27:27;;;;;;;;;1.75;0.00;;;;;;;;5029915;28;45482;-63
2022/10/02 09:29:52;;;;;;;;;0.00;0.00;;;;;;;;5028509;28;45652;-63
2022/10/02 09:32:26;;;;;;;;;2.60;1.00;;;;;;;;5032974;28;45549;-63
2022/10/02 09:35:10;;;;;;;;;3.25;1.50;;;;;;;;5031750;28;45368;-62
2022/10/02 09:37:36;;;;;;;;;0.00;0.00;;;;;;;;5033995;28;45269;-62
2022/10/02 09:40:13;;;;;;;;;1.00;1.00;;;;;;;;5027840;28;45594;-62
2022/10/02 09:42:58;;;;;;;;;0.00;0.00;;;;;;;;5031115;28;45471;-63
2022/10/02 09:45:31;;;;;;;;;1.00;1.00;;;;;;;;5033021;28;45505;-64
2022/10/02 09:48:03;;;;;;;;;1.00;0.00;;;;;;;;5035027;28;45590;-64
2022/10/02 09:50:37;;;;;;;;;0.00;0.00;;;;;;;;5035168;28;45641;-62
2022/10/02 09:53:16;;;;;;;;;0.50;0.50;;;;;;;;5031838;28;45839;-62
2022/10/02 09:56:03;;;;;;;;;1.00;0.00;;;;;;;;5032036;28;46031;-62
2022/10/02 09:58:47;;;;;;;;;0.00;0.00;;;;;;;;5030166;28;45583;-63
2022/10/02 10:01:31;;;;;;;;;0.00;0.00;;;;;;;;5030794;28;45434;-63
2022/10/02 10:03:56;;;;;;;;;0.00;0.00;;;;;;;;5032420;28;45481;-63
2022/10/02 10:06:33;;;;;;;;;0.00;0.00;;;;;;;;5032069;28;46288;-63
2022/10/02 10:09:01;;;;;;;;;0.00;0.00;;;;;;;;5031936;28;46538;-63
2022/10/02 10:11:41;;;;;;;;;2.25;1.00;;;;;;;;5034142;28;45415;-62
2022/10/02 10:14:28;;;;;;;;;0.00;0.00;;;;;;;;5027160;28;45569;-64
2022/10/02 10:17:12;;;;;;;;;0.00;0.00;;;;;;;;5025457;28;46323;-64
2022/10/02 10:19:44;;;;;;;;;0.20;0.20;;;;;;;;5036485;28;45399;-63
2022/10/02 10:22:12;;;;;;;;;0.20;0.20;;;;;;;;5033105;28;45514;-63
2022/10/02 10:24:38;;;;;;;;;0.00;0.00;;;;;;;;5031417;28;45399;-62
2022/10/02 10:27:16;;;;;;;;;0.00;0.00;;;;;;;;5027532;28;47019;-63
2022/10/02 10:29:41;;;;;;;;;0.00;0.00;;;;;;;;5027973;28;46556;-63
2022/10/02 10:32:06;;;;;;;;;0.00;0.00;;;;;;;;5031550;28;45313;-63
2022/10/02 10:35:02;;;;;;;;;0.00;0.00;;;;;;;;5028003;28;45503;-63
2022/10/02 10:40:35;;;;;;;;;0.80;0.00;;;;;;;;5022686;28;45663;-63
2022/10/02 10:43:10;;;;;;;;;0.00;0.00;;;;;;;;5030448;28;45347;-64
2022/10/02 10:45:54;;;;;;;;;0.50;0.00;;;;;;;;5036247;28;45913;-62
2022/10/02 10:48:26;;;;;;;;;0.00;0.00;;;;;;;;5031575;28;46158;-62
2022/10/02 10:50:51;;;;;;;;;0.00;0.00;;;;;;;;5025470;28;46440;-63
2022/10/02 10:53:28;;;;;;;;;0.00;0.00;;;;;;;;5031353;28;46494;-64
2022/10/02 10:56:12;;;;;;;;;0.00;0.00;;;;;;;;5030414;28;45413;-63
2022/10/02 10:58:37;;;;;;;;;0.00;0.00;;;;;;;;5026710;28;45430;-63
2022/10/02 11:01:15;;;;;;;;;0.00;0.00;;;;;;;;5025924;28;45506;-63
2022/10/02 11:03:46;;;;;;;;;0.25;0.25;;;;;;;;5030467;28;45222;-63
2022/10/02 11:06:11;;;;;;;;;0.00;0.00;;;;;;;;5029243;28;45567;-62
2022/10/02 11:08:48;;;;;;;;;0.00;0.00;;;;;;;;5034100;28;45399;-61
2022/10/02 11:11:32;;;;;;;;;0.00;0.00;;;;;;;;5011242;28;45518;-63
2022/10/02 11:14:17;;;;;;;;;0.00;0.00;;;;;;;;5035511;28;45574;-63
2022/10/02 11:17:00;;;;;;;;;1.25;1.25;;;;;;;;5030215;28;45531;-63
2022/10/02 11:19:25;;;;;;;;;0.00;0.00;;;;;;;;5032509;28;45407;-63
2022/10/02 11:22:02;;;;;;;;;0.00;0.00;;;;;;;;5027416;28;45638;-63
2022/10/02 11:24:51;;;;;;;;;1.00;1.00;;;;;;;;5031652;28;45508;-62
2022/10/02 11:27:19;;;;;;;;;0.50;0.25;;;;;;;;4985275;28;46197;-62
2022/10/02 11:29:54;;;;;;;;;1.00;1.00;;;;;;;;5034346;28;45557;-63
2022/10/02 11:32:42;;;;;;;;;0.50;0.50;;;;;;;;5026579;28;45485;-62
2022/10/02 11:35:18;;;;;;;;;0.00;0.00;;;;;;;;5032912;28;45519;-63
2022/10/02 11:37:55;;;;;;;;;0.00;0.00;;;;;;;;5026447;28;45411;-63
2022/10/02 11:40:23;;;;;;;;;1.00;1.00;;;;;;;;5032353;28;45500;-63
2022/10/02 11:42:48;;;;;;;;;0.25;0.25;;;;;;;;5024479;28;45668;-63
2022/10/02 11:45:32;;;;;;;;;0.00;0.00;;;;;;;;5027336;28;45377;-63
2022/10/02 11:48:00;;;;;;;;;1.00;1.00;;;;;;;;5026765;28;46358;-64
2022/10/02 11:50:49;;;;;;;;;1.00;1.00;;;;;;;;5030194;28;46199;-62
2022/10/02 11:53:24;;;;;;;;;2.00;0.50;;;;;;;;4989453;28;45498;-62
2022/10/02 11:55:53;;;;;;;;;1.00;1.00;;;;;;;;5025445;28;45693;-62
2022/10/02 11:58:21;;;;;;;;;0.00;0.00;;;;;;;;5034447;28;45727;-62
2022/10/02 12:01:04;;;;;;;;;6.75;1.00;;;;;;;;5029919;28;46202;-63
2022/10/02 12:03:40;;;;;;;;;1.00;1.00;;;;;;;;5039386;28;45546;-62
2022/10/02 12:06:21;;;;;;;;;1.00;1.00;;;;;;;;5034055;28;45612;-63
2022/10/02 12:08:46;;;;;;;;;0.50;0.50;;;;;;;;5030400;28;45464;-63
2022/10/02 12:11:32;;;;;;;;;1.50;1.00;;;;;;;;5038054;28;46538;-63
2022/10/02 12:14:03;;;;;;;;;1.00;1.00;;;;;;;;5028904;28;45479;-63
2022/10/02 12:16:44;;;;;;;;;0.00;0.00;;;;;;;;5033064;28;45530;-63
2022/10/02 12:19:15;;;;;;;;;2.00;1.00;;;;;;;;5031378;28;45680;-63
2022/10/02 12:28:05;;;;;;;;;0.00;0.00;;;;;;;;5030216;28;45536;-63
2022/10/02 12:30:31;;;;;;;;;0.00;0.00;;;;;;;;5039936;28;45343;-63
2022/10/02 12:33:15;;;;;;;;;0.50;0.50;;;;;;;;5031958;28;46285;-62
2022/10/02 12:35:40;;;;;;;;;0.00;0.00;;;;;;;;5033626;28;45493;-63
2022/10/02 12:38:09;;;;;;;;;0.00;0.00;;;;;;;;5026645;28;45453;-63
2022/10/02 12:40:42;;;;;;;;;0.25;0.00;;;;;;;;5033072;28;45234;-63
2022/10/02 12:43:10;;;;;;;;;0.00;0.00;;;;;;;;5031288;28;46398;-63
2022/10/02 12:45:35;;;;;;;;;0.00;0.00;;;;;;;;5036177;28;45380;-63
2022/10/02 12:48:07;;;;;;;;;0.00;0.00;;;;;;;;5033060;28;45309;-63
2022/10/02 12:50:32;;;;;;;;;0.00;0.00;;;;;;;;5016125;28;45394;-63
2022/10/02 12:53:03;;;;;;;;;0.75;0.75;;;;;;;;5034400;28;46205;-64
2022/10/02 12:55:31;;;;;;;;;0.00;0.00;;;;;;;;5029869;28;45582;-63
2022/10/02 12:58:16;;;;;;;;;0.00;0.00;;;;;;;;5027686;28;45410;-63
2022/10/02 13:00:44;;;;;;;;;2.25;0.00;;;;;;;;5030367;28;46572;-62
2022/10/02 13:03:24;;;;;;;;;0.00;0.00;;;;;;;;5037207;28;45576;-63
2022/10/02 13:06:02;;;;;;;;;0.00;0.00;;;;;;;;5028536;28;45440;-62
2022/10/02 13:08:45;;;;;;;;;1.00;1.00;;;;;;;;5029758;28;45478;-62
2022/10/02 13:11:26;;;;;;;;;0.25;0.00;;;;;;;;5035063;28;45478;-62
2022/10/02 13:13:54;;;;;;;;;0.00;0.00;;;;;;;;5030224;28;46187;-62
2022/10/02 13:16:27;;;;;;;;;1.50;0.00;;;;;;;;5029178;28;45410;-62
2022/10/02 13:19:11;;;;;;;;;0.00;0.00;;;;;;;;5033567;28;45562;-62
2022/10/02 13:21:36;;;;;;;;;0.25;0.25;;;;;;;;5021129;28;45701;-63
2022/10/02 13:24:04;;;;;;;;;0.00;0.00;;;;;;;;5034683;28;46503;-63
2022/10/02 13:26:43;;;;;;;;;0.00;0.00;;;;;;;;5028942;28;45890;-63
2022/10/02 13:29:11;;;;;;;;;0.00;0.00;;;;;;;;5039366;28;45442;-63
2022/10/02 13:31:54;;;;;;;;;0.25;0.25;;;;;;;;5032896;28;45584;-63
2022/10/02 13:34:39;;;;;;;;;0.00;0.00;;;;;;;;5031817;28;46402;-63
2022/10/02 13:37:04;;;;;;;;;0.25;0.00;;;;;;;;5024646;28;46158;-64
2022/10/02 13:39:35;;;;;;;;;1.00;1.00;;;;;;;;5033169;28;45279;-62
2022/10/02 13:42:16;;;;;;;;;1.00;0.00;;;;;;;;5031431;28;45919;-62
2022/10/02 13:44:53;;;;;;;;;0.00;0.00;;;;;;;;5029026;28;46410;-62
2022/10/02 13:47:39;;;;;;;;;0.00;0.00;;;;;;;;5028740;28;45714;-62
2022/10/02 13:50:04;;;;;;;;;0.00;0.00;;;;;;;;5032562;28;45413;-62
2022/10/02 13:52:38;;;;;;;;;0.00;0.00;;;;;;;;5025435;28;45509;-62
2022/10/02 13:55:09;;;;;;;;;2.00;0.00;;;;;;;;5030485;28;45804;-62
2022/10/02 13:57:53;;;;;;;;;0.00;0.00;;;;;;;;5025702;28;45528;-62
2022/10/02 14:00:39;;;;;;;;;0.00;0.00;;;;;;;;5032511;28;45577;-63
2022/10/02 14:03:10;;;;;;;;;2.00;1.00;;;;;;;;5031359;28;45528;-63
2022/10/02 14:05:55;;;;;;;;;0.00;0.00;;;;;;;;5030987;28;46237;-63
2022/10/02 14:08:39;;;;;;;;;0.25;0.00;;;;;;;;5006047;28;45526;-62
2022/10/02 14:11:07;;;;;;;;;2.00;0.00;;;;;;;;5031249;28;45468;-62
2022/10/02 14:13:50;;;;;;;;;0.00;0.00;;;;;;;;5024356;28;45737;-62
2022/10/02 14:16:53;;;;;;;;;0.00;0.00;;;;;;;;5034862;28;46153;-63
2022/10/02 14:19:26;;;;;;;;;0.00;0.00;;;;;;;;4960129;28;45740;-63
2022/10/02 14:21:57;;;;;;;;;0.00;0.00;;;;;;;;4960154;28;45870;-63
2022/10/02 14:25:02;;;;;;;;;0.00;0.00;;;;;;;;4994554;28;45471;-63
2022/10/02 14:27:46;;;;;;;;;0.00;0.00;;;;;;;;4986658;28;46250;-63
2022/10/02 14:30:17;;;;;;;;;0.00;0.00;;;;;;;;5033709;28;45488;-62
2022/10/02 14:32:55;;;;;;;;;0.00;0.00;;;;;;;;5027928;28;45916;-62
2022/10/02 14:35:36;;;;;;;;;0.00;0.00;;;;;;;;5037901;28;45407;-63
2022/10/02 14:38:12;;;;;;;;;0.00;0.00;;;;;;;;5033735;28;46388;-62
2022/10/02 14:40:50;;;;;;;;;0.33;0.33;;;;;;;;5030597;28;45459;-62
2022/10/02 14:43:34;;;;;;;;;0.00;0.00;;;;;;;;5036597;28;45396;-62
2022/10/02 14:46:01;;;;;;;;;0.00;0.00;;;;;;;;5031697;28;45358;-63
2022/10/02 14:48:26;;;;;;;;;0.25;0.00;;;;;;;;5025114;28;46160;-62
2022/10/02 14:50:54;;;;;;;;;0.00;0.00;;;;;;;;5031153;28;45415;-63
2022/10/02 14:53:31;;;;;;;;;0.00;0.00;;;;;;;;5028526;28;45551;-63
2022/10/02 14:56:12;;;;;;;;;0.00;0.00;;;;;;;;5029489;28;45444;-62
2022/10/02 14:58:41;;;;;;;;;0.00;0.00;;;;;;;;5026133;28;46144;-63
2022/10/02 15:01:18;;;;;;;;;0.00;0.00;;;;;;;;5033843;28;45811;-63
2022/10/02 15:03:46;;;;;;;;;0.25;0.25;;;;;;;;5032860;28;45295;-63
2022/10/02 15:06:30;;;;;;;;;1.00;1.00;;;;;;;;5025307;28;45543;-62
2022/10/02 15:08:59;;;;;;;;;4.00;4.00;;;;;;;;5030371;28;46586;-62
2022/10/02 15:11:27;;;;;;;;;5.33;4.00;;;;;;;;5031338;28;45466;-62
2022/10/02 15:14:00;;;;;;;;;3.00;3.00;;;;;;;;5024851;28;45580;-63
2022/10/02 15:19:19;;;;;;;;;2.33;2.33;;;;;;;;5028189;28;45425;-63
2022/10/02 15:21:57;;;;;;;;;1.67;1.67;;;;;;;;5029608;28;45653;-63
2022/10/02 15:24:22;;;;;;;;;0.00;0.00;;;;;;;;5032181;28;45486;-63
2022/10/02 15:27:07;;;;;;;;;3.00;2.00;;;;;;;;5032106;28;45509;-63
2022/10/02 15:30:08;;;;;;;;;9.67;7.67;;;;;;;;5030914;28;47051;-63
2022/10/02 15:32:39;;;;;;;;;3.33;3.00;;;;;;;;4942832;28;45702;-63
2022/10/02 15:35:23;;;;;;;;;2.00;1.00;;;;;;;;5015497;28;45624;-62
2022/10/02 15:37:48;;;;;;;;;0.00;0.00;;;;;;;;5024887;28;45566;-63
2022/10/02 15:40:19;;;;;;;;;0.00;0.00;;;;;;;;5023059;28;45654;-63
2022/10/02 15:42:44;;;;;;;;;0.00;0.00;;;;;;;;5026781;28;45432;-63
2022/10/02 15:45:16;;;;;;;;;1.00;1.00;;;;;;;;5031122;28;46303;-62
2022/10/02 15:47:56;;;;;;;;;3.00;1.00;;;;;;;;5027936;28;45516;-62
2022/10/02 15:50:33;;;;;;;;;0.00;0.00;;;;;;;;5033925;28;46459;-62
2022/10/02 15:53:17;;;;;;;;;2.00;2.00;;;;;;;;5020788;28;45356;-63
2022/10/02 15:55:44;;;;;;;;;1.00;1.00;;;;;;;;5030240;28;45421;-63
2022/10/02 15:58:28;;;;;;;;;2.00;2.00;;;;;;;;5024491;28;45516;-62
2022/10/02 16:01:00;;;;;;;;;3.00;3.00;;;;;;;;5029929;28;46311;-63
2022/10/02 16:03:29;;;;;;;;;1.67;1.67;;;;;;;;5031039;28;45495;-63
2022/10/02 16:05:59;;;;;;;;;4.67;4.33;;;;;;;;5027644;28;45408;-63
2022/10/02 16:08:27;;;;;;;;;2.00;2.00;;;;;;;;5011551;28;45443;-63
2022/10/02 16:11:07;;;;;;;;;1.50;1.50;;;;;;;;5031477;28;45526;-63
2022/10/02 16:13:59;;;;;;;;;1.00;1.00;;;;;;;;5017377;28;45522;-63
2022/10/02 16:16:38;;;;;;;;;1.00;1.00;;;;;;;;5026837;28;45321;-62
2022/10/02 16:19:22;;;;;;;;;0.00;0.00;;;;;;;;5027154;28;45543;-63
2022/10/02 16:21:50;;;;;;;;;0.33;0.33;;;;;;;;5021588;28;45503;-63
2022/10/02 16:24:33;;;;;;;;;0.00;0.00;;;;;;;;5030308;28;45277;-62
2022/10/02 16:27:04;;;;;;;;;3.00;3.00;;;;;;;;5031380;28;45431;-62
2022/10/02 16:29:48;;;;;;;;;2.00;2.00;;;;;;;;5032885;28;45407;-63
2022/10/02 16:32:49;;;;;;;;;0.33;0.33;;;;;;;;5029245;28;45489;-62
2022/10/02 16:35:24;;;;;;;;;0.00;0.00;;;;;;;;4941921;28;45636;-62
2022/10/02 16:38:02;;;;;;;;;0.00;0.00;;;;;;;;5016421;28;45534;-64
2022/10/02 16:40:33;;;;;;;;;0.00;0.00;;;;;;;;5029520;28;45413;-61
2022/10/02 16:43:25;;;;;;;;;0.00;0.00;;;;;;;;5030531;28;45573;-62
2022/10/02 16:45:58;;;;;;;;;0.33;0.33;;;;;;;;5026996;28;45480;-61
2022/10/02 16:48:36;;;;;;;;;1.00;1.00;;;;;;;;5027166;28;45522;-63
2022/10/02 16:51:04;;;;;;;;;1.00;1.00;;;;;;;;5033378;28;45680;-63
2022/10/02 16:53:49;;;;;;;;;6.67;6.67;;;;;;;;5010267;28;46965;-63
2022/10/02 16:56:19;;;;;;;;;4.33;3.00;;;;;;;;5029355;28;45712;-63
2022/10/02 16:58:47;;;;;;;;;3.00;3.00;;;;;;;;5027547;28;45486;-63
2022/10/02 17:01:25;;;;;;;;;1.33;1.33;;;;;;;;5028470;28;45621;-63
2022/10/02 17:03:55;;;;;;;;;1.00;1.00;;;;;;;;5029270;28;45830;-63
2022/10/02 17:06:20;;;;;;;;;2.00;2.00;;;;;;;;5027919;28;45769;-63
2022/10/02 17:08:50;;;;;;;;;0.00;0.00;;;;;;;;5033174;28;45817;-63
2022/10/02 17:11:18;;;;;;;;;4.33;2.00;;;;;;;;5033469;28;45767;-62
2022/10/02 17:13:47;;;;;;;;;2.00;2.00;;;;;;;;5028519;28;47367;-63
2022/10/02 17:16:19;;;;;;;;;2.33;2.33;;;;;;;;5035247;28;45666;-62
2022/10/02 17:18:53;;;;;;;;;2.00;2.00;;;;;;;;5032801;28;45459;-62
2022/10/02 17:21:21;;;;;;;;;0.00;0.00;;;;;;;;5038430;28;45369;-62
2022/10/02 17:23:52;;;;;;;;;1.00;1.00;;;;;;;;5037781;28;46293;-62
2022/10/02 17:26:26;;;;;;;;;2.00;2.00;;;;;;;;5035658;28;45352;-63
2022/10/02 17:28:56;;;;;;;;;4.00;4.00;;;;;;;;5029152;28;45520;-63
2022/10/02 17:31:40;;;;;;;;;6.00;2.67;;;;;;;;5034068;28;45475;-63
2022/10/02 17:34:19;;;;;;;;;3.00;3.00;;;;;;;;5028314;28;46343;-62
2022/10/02 17:36:47;;;;;;;;;4.00;4.00;;;;;;;;5034080;28;45453;-62
2022/10/02 17:39:21;;;;;;;;;4.33;3.00;;;;;;;;5031987;28;45427;-62
2022/10/02 17:41:53;;;;;;;;;2.00;2.00;;;;;;;;5033839;28;45769;-62
2022/10/02 17:44:18;;;;;;;;;3.00;1.67;;;;;;;;5029341;28;46968;-62
2022/10/02 17:46:48;;;;;;;;;2.00;2.00;;;;;;;;5030713;28;45470;-62
2022/10/02 17:49:16;;;;;;;;;1.00;1.00;;;;;;;;5031372;28;45394;-62
2022/10/02 17:51:44;;;;;;;;;2.67;1.67;;;;;;;;5030396;28;45734;-62
2022/10/02 17:57:08;;;;;;;;;1.00;1.00;;;;;;;;5032539;28;45469;-62
2022/10/02 17:59:44;;;;;;;;;1.00;1.00;;;;;;;;5025491;28;45468;-62
2022/10/02 18:02:28;;;;;;;;;0.67;0.67;;;;;;;;5027263;28;45467;-62
2022/10/02 18:05:11;;;;;;;;;1.00;1.00;;;;;;;;5031713;28;46377;-63
2022/10/02 18:07:39;;;;;;;;;1.00;1.00;;;;;;;;5027700;28;45370;-62
2022/10/02 18:10:22;;;;;;;;;1.33;1.33;;;;;;;;5030690;28;45559;-62
2022/10/02 18:13:07;;;;;;;;;3.33;3.33;;;;;;;;5030400;28;45541;-63
2022/10/02 18:15:43;;;;;;;;;5.00;5.00;;;;;;;;4993649;28;46200;-64
2022/10/02 18:18:22;;;;;;;;;4.33;4.33;;;;;;;;5026655;28;45519;-63
2022/10/02 18:21:05;;;;;;;;;4.00;4.00;;;;;;;;5033014;28;45647;-63
2022/10/02 18:23:49;;;;;;;;;4.00;4.00;;;;;;;;5028819;28;45646;-63
2022/10/02 18:26:32;;;;;;;;;4.33;4.33;;;;;;;;5029390;28;45428;-63
2022/10/02 18:29:03;;;;;;;;;13.67;13.67;;;;;;;;5027344;28;45543;-63
2022/10/02 18:31:38;;;;;;;;;13.00;9.33;;;;;;;;5034831;28;45429;-63
2022/10/02 18:34:25;;;;;;;;;8.33;5.00;;;;;;;;5024659;28;45545;-63
2022/10/02 18:36:53;;;;;;;;;9.33;8.00;;;;;;;;5027708;28;46476;-63
2022/10/02 18:39:18;;;;;;;;;1.33;1.33;;;;;;;;5031735;28;45562;-62
2022/10/02 18:41:54;;;;;;;;;5.33;5.33;;;;;;;;5029575;28;45376;-63
2022/10/02 18:44:22;;;;;;;;;8.00;8.00;;;;;;;;5031828;28;45562;-62
2022/10/02 18:47:03;;;;;;;;;5.00;5.00;;;;;;;;5028378;28;46614;-62
2022/10/02 18:49:54;;;;;;;;;5.67;5.00;;;;;;;;5027771;28;45471;-63
2022/10/02 18:52:26;;;;;;;;;5.67;5.67;;;;;;;;5006369;28;46133;-62
2022/10/02 18:55:04;;;;;;;;;3.67;3.00;;;;;;;;5022590;28;46232;-61
2022/10/02 18:57:54;;;;;;;;;4.00;4.00;;;;;;;;5014089;28;46312;-61
2022/10/02 19:00:20;;;;;;;;;3.67;3.00;;;;;;;;4991301;28;45565;-61
2022/10/02 19:03:12;;;;;;;;;4.00;4.00;;;;;;;;5027664;28;45746;-61
2022/10/02 19:05:41;;;;;;;;;9.00;5.67;;;;;;;;5024411;28;45542;-61
2022/10/02 19:08:11;;;;;;;;;8.67;7.00;;;;;;;;5026122;28;46277;-61
2022/10/02 19:10:39;;;;;;;;;9.00;5.00;;;;;;;;5014585;28;46450;-60
2022/10/02 19:13:08;;;;;;;;;5.00;4.33;;;;;;;;5008367;28;45534;-61
2022/10/02 19:15:33;;;;;;;;;3.00;3.00;;;;;;;;5012066;28;45674;-60
2022/10/02 19:18:03;;;;;;;;;4.33;3.33;;;;;;;;5007517;28;46138;-61
2022/10/02 19:20:31;;;;;;;;;8.67;4.33;;;;;;;;5028566;28;45541;-61
2022/10/02 19:22:56;;;;;;;;;11.00;7.00;;;;;;;;5022142;28;45928;-60
2022/10/02 19:25:22;;;;;;;;;11.33;8.33;;;;;;;;5026349;28;45849;-60
2022/10/02 19:27:52;;;;;;;;;11.33;9.00;;;;;;;;5023298;28;45519;-60
2022/10/02 19:30:20;;;;;;;;;10.33;8.33;;;;;;;;5027544;28;45558;-62
2022/10/02 19:32:47;;;;;;;;;12.33;9.67;;;;;;;;5026504;28;45526;-60
2022/10/02 19:35:19;;;;;;;;;16.67;12.00;;;;;;;;5029579;28;45658;-60
2022/10/02 19:37:47;;;;;;;;;16.67;12.00;;;;;;;;5025255;28;46397;-60
2022/10/02 19:40:14;;;;;;;;;23.33;18.67;;;;;;;;5022451;28;45803;-60
2022/10/02 19:42:45;;;;;;;;;21.67;15.33;;;;;;;;5031881;28;45416;-59
2022/10/02 19:45:19;;;;;;;;;20.33;18.00;;;;;;;;5022359;28;45600;-60
2022/10/02 19:47:47;;;;;;;;;23.67;21.33;;;;;;;;5027376;28;45511;-60
2022/10/02 19:50:22;;;;;;;;;26.00;17.67;;;;;;;;5014932;28;45614;-60
2022/10/02 19:52:56;;;;;;;;;25.33;21.00;;;;;;;;5029277;28;45554;-61
2022/10/02 19:55:23;;;;;;;;;25.33;19.67;;;;;;;;5025195;28;45486;-59
2022/10/02 19:57:50;;;;;;;;;25.67;20.00;;;;;;;;5024525;28;45514;-60
2022/10/02 20:00:16;;;;;;;;;24.00;15.00;;;;;;;;5022006;28;45701;-60
2022/10/02 20:02:44;;;;;;;;;21.67;18.67;;;;;;;;5027409;28;45505;-60
2022/10/02 20:05:20;;;;;;;;;25.00;18.67;;;;;;;;5021582;28;45839;-61
2022/10/02 20:07:47;;;;;;;;;23.33;19.67;;;;;;;;5024001;28;45477;-60
2022/10/02 20:10:30;;;;;;;;;25.67;24.00;;;;;;;;5009912;28;45515;-60
2022/10/02 20:13:14;;;;;;;;;27.67;23.00;;;;;;;;5024643;28;45734;-60
2022/10/02 20:18:33;;;;;;;;;29.33;26.00;;;;;;;;5018333;28;45842;-60
2022/10/02 20:21:12;;;;;;;;;40.00;31.67;;;;;;;;5021282;28;45532;-61
2022/10/02 20:23:40;;;;;;;;;45.33;33.00;;;;;;;;5023288;28;46463;-60
2022/10/02 20:26:07;;;;;;;;;63.75;45.75;;;;;;;;5029813;28;45554;-59
2022/10/02 20:28:55;;;;;;;;;64.25;50.00;;;;;;;;5030771;28;46149;-59
2022/10/02 20:31:33;;;;;;;;;78.00;55.50;;;;;;;;5030610;28;45512;-60
2022/10/02 20:34:00;;;;;;;;;73.00;53.50;;;;;;;;5035954;28;45455;-60
2022/10/02 20:36:28;;;;;;;;;73.75;50.50;;;;;;;;5030701;28;45438;-60
2022/10/02 20:39:02;;;;;;;;;62.50;48.25;;;;;;;;5032437;28;45387;-59
2022/10/02 20:41:33;;;;;;;;;65.50;49.50;;;;;;;;5031707;28;45788;-60
2022/10/02 20:44:04;;;;;;;;;76.75;52.50;;;;;;;;5030540;28;45447;-60
2022/10/02 20:46:30;;;;;;;;;60.50;48.25;;;;;;;;5029993;28;45410;-59
2022/10/02 20:49:14;;;;;;;;;58.00;44.25;;;;;;;;5037056;28;46249;-59
2022/10/02 20:51:57;;;;;;;;;51.67;39.00;;;;;;;;5029367;28;45854;-60
2022/10/02 20:54:31;;;;;;;;;56.00;43.67;;;;;;;;5026335;28;45503;-59
2022/10/02 20:57:03;;;;;;;;;45.00;37.67;;;;;;;;5033260;28;45661;-60
2022/10/02 20:59:46;;;;;;;;;38.00;32.67;;;;;;;;5029395;28;45901;-60
2022/10/02 21:02:15;;;;;;;;;46.67;34.33;;;;;;;;5027109;28;45498;-62
2022/10/02 21:04:40;;;;;;;;;32.67;30.67;;;;;;;;5028528;28;46711;-60
2022/10/02 21:07:16;;;;;;;;;38.50;33.50;;;;;;;;5017741;28;45491;-60
2022/10/02 21:10:00;;;;;;;;;36.67;28.00;;;;;;;;5028197;28;45471;-60
2022/10/02 21:12:25;;;;;;;;;34.33;30.00;;;;;;;;5025943;28;46118;-60
2022/10/02 21:15:09;;;;;;;;;23.33;23.00;;;;;;;;5024065;28;46265;-61
2022/10/02 21:17:53;;;;;;;;;24.67;24.67;;;;;;;;5023279;28;45460;-60
2022/10/02 21:20:37;;;;;;;;;26.33;19.00;;;;;;;;5030270;28;46389;-59
2022/10/02 21:23:23;;;;;;;;;20.00;18.33;;;;;;;;5018625;28;46352;-60
2022/10/02 21:26:07;;;;;;;;;24.67;22.00;;;;;;;;5012388;28;45609;-60
2022/10/02 21:28:35;;;;;;;;;21.00;17.67;;;;;;;;5030517;28;45658;-60
2022/10/02 21:31:06;;;;;;;;;19.33;19.33;;;;;;;;5025356;28;45871;-60
2022/10/02 21:33:51;;;;;;;;;23.33;19.00;;;;;;;;5024130;28;45525;-59
2022/10/02 21:36:21;;;;;;;;;23.00;18.33;;;;;;;;5015420;28;45566;-60
2022/10/02 21:39:15;;;;;;;;;16.00;15.67;;;;;;;;5031155;28;45940;-59
2022/10/02 21:41:49;;;;;;;;;15.67;14.67;;;;;;;;4972611;28;45908;-60